Cleveland, North Carolina
Current Conditions -  °F | °C
As of 8:35 AM on Friday 24 Oct 2014 (Local Time) from KRUQ Reporting Station
Clear Clear  
Wind Chill:   Ceiling: Unl
Heat Index:   Visibility: 10mi
Dew Point:   Wind: 0mph
Humidity: 97%   Direction: NA
Pressure: 30.07"   Gusts: NA
Location:  35.73°N, 80.68°W
Report Text: KRUQ 241235Z AUTO 00000KT 10SM CLR 04/04 A3007 RMK AO2 T00400036
Loading
Personal Weather Stations






























Interactive Weather Map
Tropical Storm Tracking
New forecast layout! Learn more

10-Day Weather Forecast

Advertisements
Track Severe Weather on mobile